sensor_id;sensor_type;location;lat;lon;timestamp;P1;durP1;ratioP1;P2;durP2;ratioP2
44694;SDS011;32845;59.422;17.930;2022-11-15T00:03:29;0.85;;;0.80;;
44694;SDS011;32845;59.422;17.930;2022-11-15T00:07:59;2.08;;;0.70;;
44694;SDS011;32845;59.422;17.930;2022-11-15T00:12:30;0.63;;;0.55;;
44694;SDS011;32845;59.422;17.930;2022-11-15T00:17:01;1.08;;;0.60;;
44694;SDS011;32845;59.422;17.930;2022-11-15T00:21:31;0.63;;;0.55;;
44694;SDS011;32845;59.422;17.930;2022-11-15T00:26:02;1.05;;;0.65;;
44694;SDS011;32845;59.422;17.930;2022-11-15T00:30:42;0.80;;;0.60;;
44694;SDS011;32845;59.422;17.930;2022-11-15T00:35:13;0.77;;;0.60;;
44694;SDS011;32845;59.422;17.930;2022-11-15T00:39:49;0.60;;;0.50;;
44694;SDS011;32845;59.422;17.930;2022-11-15T00:44:19;0.60;;;0.57;;
44694;SDS011;32845;59.422;17.930;2022-11-15T00:48:50;0.93;;;0.70;;
44694;SDS011;32845;59.422;17.930;2022-11-15T00:53:21;1.00;;;0.80;;
44694;SDS011;32845;59.422;17.930;2022-11-15T00:57:51;1.10;;;0.80;;
44694;SDS011;32845;59.422;17.930;2022-11-15T01:02:22;0.90;;;0.43;;
44694;SDS011;32845;59.422;17.930;2022-11-15T01:06:53;0.50;;;0.50;;
44694;SDS011;32845;59.422;17.930;2022-11-15T01:11:33;0.47;;;0.40;;
44694;SDS011;32845;59.422;17.930;2022-11-15T01:16:11;0.80;;;0.40;;
44694;SDS011;32845;59.422;17.930;2022-11-15T01:25:20;1.80;;;0.50;;
44694;SDS011;32845;59.422;17.930;2022-11-15T01:29:59;1.40;;;0.50;;
44694;SDS011;32845;59.422;17.930;2022-11-15T01:39:11;1.88;;;0.80;;
44694;SDS011;32845;59.422;17.930;2022-11-15T01:43:41;7.38;;;0.68;;
44694;SDS011;32845;59.422;17.930;2022-11-15T01:48:12;1.75;;;0.70;;
44694;SDS011;32845;59.422;17.930;2022-11-15T01:52:42;1.10;;;0.80;;
44694;SDS011;32845;59.422;17.930;2022-11-15T01:57:13;3.65;;;0.90;;
44694;SDS011;32845;59.422;17.930;2022-11-15T02:01:44;1.90;;;0.80;;
44694;SDS011;32845;59.422;17.930;2022-11-15T02:06:15;1.50;;;1.25;;
44694;SDS011;32845;59.422;17.930;2022-11-15T02:10:46;2.45;;;0.90;;
44694;SDS011;32845;59.422;17.930;2022-11-15T02:15:17;1.25;;;0.80;;
44694;SDS011;32845;59.422;17.930;2022-11-15T02:39:34;2.75;;;1.30;;
44694;SDS011;32845;59.422;17.930;2022-11-15T02:44:16;1.02;;;0.85;;
44694;SDS011;32845;59.422;17.930;2022-11-15T02:48:55;2.10;;;1.23;;
44694;SDS011;32845;59.422;17.930;2022-11-15T02:53:26;2.75;;;1.55;;
44694;SDS011;32845;59.422;17.930;2022-11-15T02:58:01;2.03;;;1.50;;
44694;SDS011;32845;59.422;17.930;2022-11-15T03:02:45;1.77;;;1.30;;
44694;SDS011;32845;59.422;17.930;2022-11-15T03:07:43;1.83;;;1.10;;
44694;SDS011;32845;59.422;17.930;2022-11-15T03:12:30;1.83;;;1.35;;
44694;SDS011;32845;59.422;17.930;2022-11-15T03:21:55;0.90;;;0.75;;
44694;SDS011;32845;59.422;17.930;2022-11-15T03:26:27;1.50;;;0.90;;
44694;SDS011;32845;59.422;17.930;2022-11-15T03:31:00;0.77;;;0.70;;
44694;SDS011;32845;59.422;17.930;2022-11-15T03:35:53;1.88;;;1.10;;
44694;SDS011;32845;59.422;17.930;2022-11-15T03:40:36;1.95;;;1.30;;
44694;SDS011;32845;59.422;17.930;2022-11-15T03:45:14;2.28;;;1.23;;
44694;SDS011;32845;59.422;17.930;2022-11-15T03:49:46;4.05;;;1.50;;
44694;SDS011;32845;59.422;17.930;2022-11-15T03:54:22;2.25;;;1.52;;
44694;SDS011;32845;59.422;17.930;2022-11-15T03:59:02;3.83;;;1.88;;
